Time;durP1;ratioP1;P1;durP2;ratioP2;P2;SDS_P1;SDS_P2;PMS_P1;PMS_P2;Temp;Humidity;BMP_temperature;BMP_pressure;BME280_temperature;BME280_humidity;BME280_pressure;Samples;Min_cycle;Max_cycle;Signal;HPM_P1;HPM_P2
2023/06/20 00:01:46;;;;;;;5.95;5.40;;;;;;;19.61;100.00;100409.19;6242312;28;20074;-87
2023/06/20 00:04:48;;;;;;;6.03;5.38;;;;;;;19.57;100.00;100407.91;6248042;28;20041;-87
2023/06/20 00:07:50;;;;;;;6.43;5.82;;;;;;;19.51;100.00;100419.97;6233849;28;20053;-87
2023/06/20 00:10:52;;;;;;;6.32;5.72;;;;;;;19.46;100.00;100417.06;6232491;28;20566;-87
2023/06/20 00:13:53;;;;;;;6.75;6.15;;;;;;;19.45;100.00;100422.50;6232285;28;20092;-87
2023/06/20 00:16:58;;;;;;;8.60;5.40;;;;;;;19.44;100.00;100420.88;6235279;28;20053;-87
2023/06/20 00:20:04;;;;;;;5.82;5.22;;;;;;;19.43;100.00;100420.06;6244361;28;20037;-87
2023/06/20 00:23:06;;;;;;;6.10;5.50;;;;;;;19.41;100.00;100427.31;6242498;28;20507;-87
2023/06/20 00:26:09;;;;;;;6.45;5.82;;;;;;;19.37;100.00;100418.97;6239805;28;20049;-87
2023/06/20 00:29:11;;;;;;;6.43;5.93;;;;;;;19.36;100.00;100419.16;6234523;28;20060;-87
2023/06/20 00:32:13;;;;;;;8.52;6.05;;;;;;;19.32;100.00;100416.06;6221222;28;20061;-87
2023/06/20 00:35:15;;;;;;;7.53;6.22;;;;;;;19.30;100.00;100415.44;6240359;28;20068;-87
2023/06/20 00:38:17;;;;;;;6.68;5.50;;;;;;;19.30;100.00;100409.38;6237011;28;20049;-87
2023/06/20 00:41:21;;;;;;;7.95;6.47;;;;;;;19.29;100.00;100413.81;6236261;28;20049;-87
2023/06/20 00:44:24;;;;;;;8.10;7.30;;;;;;;19.30;100.00;100415.44;6232357;28;20081;-87
2023/06/20 00:47:27;;;;;;;8.50;7.63;;;;;;;19.34;100.00;100410.66;6235022;28;20038;-87
2023/06/20 00:50:31;;;;;;;8.48;7.57;;;;;;;19.41;100.00;100410.75;6234312;28;20030;-87
2023/06/20 00:53:32;;;;;;;9.13;7.82;;;;;;;19.43;100.00;100414.81;6234025;28;20422;-87
2023/06/20 00:56:34;;;;;;;9.02;7.68;;;;;;;19.45;100.00;100410.19;6227184;28;20062;-87
2023/06/20 00:59:36;;;;;;;9.05;8.15;;;;;;;19.46;100.00;100411.00;6233143;28;20064;-87
2023/06/20 01:02:39;;;;;;;9.20;7.70;;;;;;;19.47;100.00;100404.75;6238967;28;20046;-87
2023/06/20 01:05:51;;;;;;;9.82;8.25;;;;;;;19.49;100.00;100408.81;6238149;28;20463;-87
2023/06/20 01:09:26;;;;;;;7.30;6.53;;;;;;;19.47;100.00;100410.81;6238400;28;20057;-87
2023/06/20 01:12:44;;;;;;;8.68;7.28;;;;;;;19.43;100.00;100409.56;6219149;28;20045;-87
2023/06/20 01:16:07;;;;;;;7.70;6.93;;;;;;;19.30;100.00;100410.22;6248273;28;20452;-87
2023/06/20 01:19:47;;;;;;;6.88;6.28;;;;;;;19.24;100.00;100416.16;6227346;28;20120;-87
2023/06/20 01:23:14;;;;;;;10.20;6.63;;;;;;;19.15;100.00;100401.50;6229922;28;20044;-87
2023/06/20 01:26:22;;;;;;;7.63;6.78;;;;;;;19.08;100.00;100411.91;6234524;28;20076;-87
2023/06/20 01:29:39;;;;;;;8.80;6.43;;;;;;;19.02;100.00;100406.56;6223856;28;20049;-87
2023/06/20 01:32:46;;;;;;;8.85;7.22;;;;;;;18.96;100.00;100408.09;6225948;28;20149;-87
2023/06/20 01:35:48;;;;;;;8.40;7.43;;;;;;;18.92;100.00;100407.63;6231709;28;20170;-87
2023/06/20 01:38:57;;;;;;;8.77;7.57;;;;;;;18.93;100.00;100405.81;6235729;28;20542;-87
2023/06/20 01:42:02;;;;;;;8.77;7.85;;;;;;;18.96;100.00;100400.22;6251606;28;20037;-87
2023/06/20 01:45:08;;;;;;;9.65;7.75;;;;;;;18.98;100.00;100405.28;6230615;28;20102;-87
2023/06/20 01:48:11;;;;;;;10.02;7.85;;;;;;;18.94;100.00;100410.06;6241102;28;20424;-87
2023/06/20 01:51:14;;;;;;;8.95;8.00;;;;;;;18.93;100.00;100398.78;6229492;28;20118;-87
2023/06/20 01:54:17;;;;;;;10.38;8.77;;;;;;;18.91;100.00;100400.75;6259071;28;20537;-87
2023/06/20 01:57:20;;;;;;;9.65;8.30;;;;;;;18.91;100.00;100410.44;6242079;28;20045;-87
2023/06/20 02:00:24;;;;;;;9.82;8.40;;;;;;;18.93;100.00;100409.25;6238700;28;20450;-87
2023/06/20 02:03:28;;;;;;;9.23;8.38;;;;;;;18.90;100.00;100409.59;6244895;28;20129;-87
2023/06/20 02:06:31;;;;;;;8.55;7.40;;;;;;;18.91;100.00;100400.75;6234291;28;20501;-87
2023/06/20 02:09:35;;;;;;;8.90;8.07;;;;;;;18.90;100.00;100398.31;6247042;28;20045;-87
2023/06/20 02:12:42;;;;;;;9.35;8.27;;;;;;;18.88;100.00;100395.03;6224464;28;20046;-87
2023/06/20 02:15:45;;;;;;;10.10;9.10;;;;;;;18.87;100.00;100399.47;6244167;28;20521;-87
2023/06/20 02:18:49;;;;;;;11.55;9.85;;;;;;;18.87;100.00;100399.47;6247094;28;20052;-87
2023/06/20 02:21:53;;;;;;;8.98;8.07;;;;;;;18.89;100.00;100391.44;6245855;28;20033;-86
2023/06/20 02:25:02;;;;;;;9.93;8.90;;;;;;;18.95;100.00;100393.31;6217092;28;20033;-87
2023/06/20 02:28:07;;;;;;;10.93;9.82;;;;;;;19.03;100.00;100395.91;6246627;28;20076;-87
2023/06/20 02:31:13;;;;;;;9.75;8.68;;;;;;;19.12;100.00;100399.22;6254187;28;20038;-87
2023/06/20 02:34:21;;;;;;;10.13;9.13;;;;;;;19.21;100.00;100397.34;6241728;28;20136;-87
2023/06/20 02:37:29;;;;;;;9.65;8.65;;;;;;;19.26;100.00;100397.63;6231854;28;20045;-87
2023/06/20 02:40:31;;;;;;;11.10;9.50;;;;;;;19.33;100.00;100396.72;6246043;28;20053;-87
2023/06/20 02:43:33;;;;;;;9.65;8.75;;;;;;;19.41;100.00;100400.25;6241890;28;20086;-87
2023/06/20 02:46:53;;;;;;;11.70;9.70;;;;;;;19.46;100.00;100390.81;6235791;28;20042;-87
2023/06/20 02:50:20;;;;;;;10.93;9.40;;;;;;;19.48;100.00;100385.41;6248605;28;20136;-87
2023/06/20 02:53:48;;;;;;;10.73;9.52;;;;;;;19.47;100.00;100389.00;6251237;28;20120;-87
2023/06/20 02:56:55;;;;;;;10.43;9.35;;;;;;;19.52;100.00;100381.38;6237519;28;20042;-87
2023/06/20 03:00:10;;;;;;;11.07;9.90;;;;;;;19.56;100.00;100386.09;6248116;28;20627;-87
2023/06/20 03:03:17;;;;;;;9.90;8.75;;;;;;;19.59;100.00;100384.91;6237515;28;20522;-87
2023/06/20 03:06:27;;;;;;;10.20;9.10;;;;;;;19.62;100.00;100395.03;6238159;28;20037;-87
2023/06/20 03:09:31;;;;;;;12.77;10.10;;;;;;;19.63;100.00;100395.88;6205040;28;20526;-87
2023/06/20 03:12:33;;;;;;;9.98;8.98;;;;;;;19.64;100.00;100397.50;6244060;28;20042;-87
2023/06/20 03:15:35;;;;;;;11.07;9.98;;;;;;;19.62;100.00;100396.84;6223943;28;20392;-87
2023/06/20 03:18:37;;;;;;;10.40;9.40;;;;;;;19.59;100.00;100398.03;6235024;28;20053;-87
2023/06/20 03:21:40;;;;;;;10.18;9.15;;;;;;;19.58;100.00;100399.84;6220907;28;20045;-87
2023/06/20 03:24:47;;;;;;;10.93;9.25;;;;;;;19.61;100.00;100395.25;6236255;28;20060;-87
2023/06/20 03:27:49;;;;;;;12.23;8.90;;;;;;;19.59;100.00;100390.97;6223770;28;20053;-87
2023/06/20 03:30:51;;;;;;;10.50;9.30;;;;;;;19.63;100.00;100388.81;6245889;28;20456;-87
2023/06/20 03:33:55;;;;;;;10.65;9.40;;;;;;;19.67;100.00;100394.50;6238736;28;20037;-87
2023/06/20 03:36:57;;;;;;;10.93;9.85;;;;;;;19.69;100.00;100393.34;6246775;28;20049;-87
2023/06/20 03:39:59;;;;;;;11.52;9.55;;;;;;;19.75;100.00;100382.13;6240721;28;20041;-87
2023/06/20 03:43:02;;;;;;;10.52;9.40;;;;;;;19.85;100.00;100388.88;6207315;28;20060;-87
2023/06/20 03:46:05;;;;;;;11.23;9.98;;;;;;;19.90;100.00;100389.97;6229713;28;20284;-87
2023/06/20 03:49:07;;;;;;;10.93;9.50;;;;;;;19.97;100.00;100390.84;6240743;28;20464;-87
2023/06/20 03:52:11;;;;;;;12.98;9.68;;;;;;;20.04;100.00;100385.63;6226877;28;20041;-87
2023/06/20 03:55:14;;;;;;;14.10;10.20;;;;;;;20.11;100.00;100390.97;6219647;28;20414;-87
2023/06/20 03:58:16;;;;;;;16.08;10.40;;;;;;;20.13;100.00;100394.22;6235304;28;20123;-87
2023/06/20 04:01:18;;;;;;;10.57;9.52;;;;;;;20.21;100.00;100402.78;6236397;28;20633;-87
2023/06/20 04:04:20;;;;;;;11.90;9.55;;;;;;;20.23;100.00;100400.81;6252480;28;20123;-87
2023/06/20 04:07:22;;;;;;;12.05;10.73;;;;;;;20.29;100.00;100408.94;6242866;28;20051;-87
2023/06/20 04:10:24;;;;;;;13.20;9.98;;;;;;;20.29;100.00;100408.94;6244925;28;20049;-87
2023/06/20 04:13:27;;;;;;;13.52;9.93;;;;;;;20.32;100.00;100400.66;6249140;28;20057;-87
2023/06/20 04:16:30;;;;;;;12.07;10.07;;;;;;;20.31;100.00;100404.31;6236524;28;20034;-87
2023/06/20 04:19:32;;;;;;;12.68;10.30;;;;;;;20.36;100.00;100409.81;6237801;28;20087;-87
2023/06/20 04:22:34;;;;;;;10.77;9.68;;;;;;;20.42;100.00;100412.50;6247022;28;20045;-87
2023/06/20 04:25:36;;;;;;;11.77;9.98;;;;;;;20.46;100.00;100409.50;6256316;28;20599;-87
2023/06/20 04:28:38;;;;;;;10.93;9.82;;;;;;;20.53;100.00;100413.00;6243757;28;20206;-87
2023/06/20 04:31:39;;;;;;;12.07;9.48;;;;;;;20.59;100.00;100423.59;6262545;28;20029;-87
2023/06/20 04:34:41;;;;;;;15.00;10.80;;;;;;;20.64;100.00;100417.78;6256131;28;20101;-87
2023/06/20 04:37:43;;;;;;;14.80;9.95;;;;;;;20.72;100.00;100416.81;6224132;28;20049;-87
2023/06/20 04:40:47;;;;;;;11.90;10.23;;;;;;;20.73;100.00;100407.94;6240388;28;20495;-87
2023/06/20 04:43:49;;;;;;;12.80;9.90;;;;;;;20.77;100.00;100409.16;6242136;28;20051;-87
2023/06/20 04:46:55;;;;;;;11.38;10.18;;;;;;;20.81;100.00;100411.22;6250981;28;20068;-87
2023/06/20 04:50:02;;;;;;;11.80;10.48;;;;;;;20.85;100.00;100417.75;6226322;28;20073;-87
2023/06/20 04:53:04;;;;;;;12.48;10.35;;;;;;;20.91;100.00;100410.09;6256119;28;20041;-87
2023/06/20 04:56:06;;;;;;;12.55;9.52;;;;;;;20.99;100.00;100415.19;6245342;28;20052;-87
2023/06/20 04:59:08;;;;;;;11.02;9.93;;;;;;;21.05;100.00;100415.25;6245458;28;20073;-87
2023/06/20 05:02:10;;;;;;;12.10;10.30;;;;;;;21.15;100.00;100424.63;6249600;28;20041;-87
2023/06/20 05:05:14;;;;;;;13.32;10.23;;;;;;;21.24;100.00;100420.81;6247180;28;20052;-87
2023/06/20 05:08:19;;;;;;;11.55;9.75;;;;;;;21.35;100.00;100425.56;6223502;28;20056;-87
2023/06/20 05:11:21;;;;;;;12.18;10.25;;;;;;;21.50;100.00;100431.53;6215276;28;20093;-87
2023/06/20 05:14:23;;;;;;;10.57;9.57;;;;;;;21.57;100.00;100430.78;6237562;28;20076;-87
2023/06/20 05:17:25;;;;;;;12.75;10.48;;;;;;;21.60;100.00;100431.19;6241016;28;20320;-87
2023/06/20 05:20:27;;;;;;;10.75;9.70;;;;;;;21.59;100.00;100437.47;6240688;28;20074;-87
2023/06/20 05:23:30;;;;;;;10.10;9.13;;;;;;;21.51;100.00;100432.34;6252626;28;20103;-87
2023/06/20 05:26:31;;;;;;;10.73;9.38;;;;;;;21.43;100.00;100435.16;6240942;28;20514;-87
2023/06/20 05:29:34;;;;;;;10.35;9.30;;;;;;;21.35;100.00;100437.91;6240884;28;20124;-86
2023/06/20 05:32:37;;;;;;;10.45;9.35;;;;;;;21.28;100.00;100433.41;6221077;28;20128;-87
2023/06/20 05:35:41;;;;;;;11.73;9.65;;;;;;;21.22;100.00;100436.81;6240537;28;20132;-86
2023/06/20 05:38:42;;;;;;;12.15;9.15;;;;;;;21.16;100.00;100442.03;6239484;28;20045;-86
2023/06/20 05:41:44;;;;;;;12.80;9.93;;;;;;;21.07;100.00;100444.03;6238265;28;20452;-87
2023/06/20 05:44:46;;;;;;;10.35;9.18;;;;;;;21.00;100.00;100458.94;6251779;28;20056;-87
2023/06/20 05:47:48;;;;;;;10.80;9.15;;;;;;;20.89;100.00;100465.53;6242415;28;20046;-86
2023/06/20 05:50:54;;;;;;;10.48;9.38;;;;;;;20.84;100.00;100476.66;6250824;28;20041;-86
2023/06/20 05:54:02;;;;;;;13.40;10.30;;;;;;;20.74;100.00;100477.94;6240216;28;20037;-86
2023/06/20 05:57:07;;;;;;;10.77;9.68;;;;;;;20.64;100.00;100479.09;6231010;28;20041;-87
2023/06/20 06:00:16;;;;;;;11.98;10.55;;;;;;;20.61;100.00;100471.56;6235486;28;20056;-86
2023/06/20 06:03:18;;;;;;;14.48;10.82;;;;;;;20.55;100.00;100477.59;6251436;28;20049;-86
2023/06/20 06:06:21;;;;;;;17.85;11.43;;;;;;;20.58;100.00;100476.41;6248249;28;20176;-86
2023/06/20 06:09:23;;;;;;;15.35;11.38;;;;;;;20.74;100.00;100476.13;6241606;28;20100;-87
2023/06/20 06:12:24;;;;;;;13.93;10.45;;;;;;;20.95;100.00;100470.03;6239399;28;20044;-86
2023/06/20 06:15:26;;;;;;;13.27;11.15;;;;;;;21.19;100.00;100474.06;6252082;28;20117;-87
2023/06/20 06:18:30;;;;;;;13.45;11.18;;;;;;;21.44;100.00;100476.25;6258013;28;20041;-87
2023/06/20 06:21:32;;;;;;;14.52;10.70;;;;;;;21.68;100.00;100478.44;6249120;28;20171;-86
2023/06/20 06:24:34;;;;;;;16.98;10.93;;;;;;;21.82;100.00;100466.13;6259465;28;20051;-87
2023/06/20 06:27:36;;;;;;;11.63;10.43;;;;;;;21.87;100.00;100473.47;6261260;28;20048;-86
2023/06/20 06:30:38;;;;;;;12.95;11.55;;;;;;;21.60;100.00;100469.88;6241361;28;20060;-87
2023/06/20 06:33:41;;;;;;;12.20;10.90;;;;;;;21.28;100.00;100478.16;6252014;28;20045;-86
2023/06/20 06:36:45;;;;;;;13.80;11.23;;;;;;;21.12;100.00;100472.38;6255318;28;20041;-87
2023/06/20 06:39:46;;;;;;;15.10;11.63;;;;;;;21.03;100.00;100476.97;6241272;28;20192;-86
2023/06/20 06:42:49;;;;;;;13.73;11.32;;;;;;;21.04;100.00;100470.69;6248968;28;20040;-86
2023/06/20 06:45:52;;;;;;;12.85;11.07;;;;;;;21.02;100.00;100470.09;6242096;28;20038;-86
2023/06/20 06:48:54;;;;;;;12.82;11.15;;;;;;;21.05;100.00;100462.63;6236184;28;20444;-86
2023/06/20 06:51:56;;;;;;;15.48;11.27;;;;;;;21.07;100.00;100470.34;6244802;28;20037;-86
2023/06/20 06:54:58;;;;;;;14.35;11.95;;;;;;;21.18;100.00;100471.63;6257558;28;20128;-86
2023/06/20 06:57:59;;;;;;;12.75;11.07;;;;;;;21.35;100.00;100470.31;6237682;28;20443;-86
2023/06/20 07:01:02;;;;;;;13.25;11.07;;;;;;;21.60;100.00;100470.69;6240101;28;20072;-86
2023/06/20 07:04:04;;;;;;;13.70;11.05;;;;;;;21.85;100.00;100478.91;6239201;28;20057;-86
2023/06/20 07:07:06;;;;;;;13.55;10.98;;;;;;;22.03;100.00;100478.38;6237607;28;20522;-86
2023/06/20 07:10:09;;;;;;;13.68;10.75;;;;;;;22.19;100.00;100473.78;6241485;28;20123;-86
2023/06/20 07:13:11;;;;;;;13.20;11.55;;;;;;;22.32;100.00;100482.56;6239803;28;20042;-86
2023/06/20 07:16:13;;;;;;;12.07;10.82;;;;;;;22.40;100.00;100470.19;6237201;28;20045;-86
2023/06/20 07:19:15;;;;;;;13.55;10.80;;;;;;;22.46;100.00;100472.00;6238286;28;20400;-86
2023/06/20 07:22:17;;;;;;;13.68;11.32;;;;;;;22.56;100.00;100470.63;6245798;28;20125;-86
2023/06/20 07:25:20;;;;;;;11.63;10.32;;;;;;;22.62;100.00;100465.56;6244026;28;20307;-86
2023/06/20 07:28:25;;;;;;;11.00;9.50;;;;;;;22.57;100.00;100458.25;6249821;28;20037;-86
2023/06/20 07:31:26;;;;;;;11.70;10.25;;;;;;;22.43;100.00;100449.50;6242372;28;20035;-86
2023/06/20 07:34:28;;;;;;;11.32;10.13;;;;;;;22.30;100.00;100457.38;6247452;28;20044;-86
2023/06/20 07:37:30;;;;;;;11.48;10.13;;;;;;;22.20;100.00;100456.97;6247286;28;20041;-86
2023/06/20 07:40:32;;;;;;;12.77;10.40;;;;;;;22.10;100.00;100452.84;6241046;28;20044;-86
2023/06/20 07:43:34;;;;;;;12.50;10.00;;;;;;;22.05;100.00;100455.25;6238861;28;20046;-86
2023/06/20 07:46:36;;;;;;;10.73;9.57;;;;;;;21.97;100.00;100460.72;6242649;28;20068;-86
2023/06/20 07:49:38;;;;;;;11.00;9.90;;;;;;;21.90;100.00;100451.97;6236594;28;20325;-86
2023/06/20 07:52:42;;;;;;;10.88;9.77;;;;;;;22.01;100.00;100443.50;6225651;28;20064;-86
2023/06/20 07:55:44;;;;;;;10.00;8.88;;;;;;;22.31;100.00;100451.09;6250986;28;20037;-86
2023/06/20 07:58:47;;;;;;;9.68;7.63;;;;;;;22.62;100.00;100447.09;6243591;28;20036;-86
2023/06/20 08:01:48;;;;;;;8.50;7.25;;;;;;;22.76;100.00;100440.81;6207585;28;20141;-86
2023/06/20 08:04:50;;;;;;;7.72;7.03;;;;;;;22.90;100.00;100438.97;6234564;28;20167;-86
2023/06/20 08:07:52;;;;;;;11.98;7.22;;;;;;;23.13;100.00;100443.81;6242990;28;20049;-86
2023/06/20 08:10:54;;;;;;;6.70;6.10;;;;;;;23.31;100.00;100444.00;6251505;28;20045;-87
2023/06/20 08:13:55;;;;;;;7.20;6.38;;;;;;;23.58;100.00;100438.66;6244701;28;20045;-86
2023/06/20 08:16:57;;;;;;;7.30;6.60;;;;;;;23.85;100.00;100434.09;6242194;28;20045;-86
2023/06/20 08:19:59;;;;;;;8.95;6.85;;;;;;;23.95;100.00;100429.16;6248181;28;20042;-86
2023/06/20 08:23:01;;;;;;;8.95;7.13;;;;;;;23.98;100.00;100426.09;6246960;28;20150;-87
2023/06/20 08:26:03;;;;;;;7.30;6.50;;;;;;;24.00;100.00;100425.84;6245238;28;20045;-86
2023/06/20 08:29:08;;;;;;;6.95;6.25;;;;;;;24.14;100.00;100424.75;6258746;28;20146;-87
2023/06/20 08:32:10;;;;;;;8.27;6.25;;;;;;;24.38;100.00;100425.03;6254698;28;20049;-86
2023/06/20 08:35:11;;;;;;;7.63;6.10;;;;;;;24.62;100.00;100432.22;6247461;28;20052;-87
2023/06/20 08:38:13;;;;;;;6.30;5.75;;;;;;;24.85;100.00;100431.59;6241186;28;20036;-86
2023/06/20 08:41:15;;;;;;;6.05;5.47;;;;;;;24.81;100.00;100435.69;6245442;28;20479;-87
2023/06/20 08:44:17;;;;;;;6.15;5.55;;;;;;;24.79;100.00;100434.28;6244295;28;20041;-87
2023/06/20 08:47:20;;;;;;;5.60;5.00;;;;;;;24.82;100.00;100432.03;6242993;28;20056;-87
2023/06/20 08:50:22;;;;;;;5.43;4.93;;;;;;;24.95;100.00;100430.31;6247086;28;20650;-87
2023/06/20 08:53:25;;;;;;;5.88;4.97;;;;;;;25.18;100.00;100424.38;6241886;28;20048;-87
2023/06/20 08:56:28;;;;;;;5.78;4.97;;;;;;;25.47;100.00;100423.66;6239890;28;20854;-87
2023/06/20 08:59:30;;;;;;;5.47;4.97;;;;;;;25.79;100.00;100426.13;6240809;28;20611;-87
2023/06/20 09:02:32;;;;;;;5.32;4.70;;;;;;;26.04;100.00;100430.50;6240165;28;20049;-87
2023/06/20 09:05:42;;;;;;;5.60;4.95;;;;;;;26.14;100.00;100420.16;6241519;28;20060;-87
2023/06/20 09:08:45;;;;;;;4.93;4.43;;;;;;;26.19;100.00;100420.28;6241392;28;20641;-87
2023/06/20 09:11:52;;;;;;;6.13;4.82;;;;;;;26.15;100.00;100419.91;6233551;28;20033;-87
2023/06/20 09:14:54;;;;;;;4.93;4.45;;;;;;;26.03;100.00;100426.22;6250764;28;20042;-87
2023/06/20 09:18:00;;;;;;;5.30;4.80;;;;;;;25.87;100.00;100422.38;6250437;28;20026;-87
2023/06/20 09:21:03;;;;;;;5.10;4.55;;;;;;;25.73;100.00;100421.69;6240116;28;20479;-87
2023/06/20 09:24:06;;;;;;;5.75;5.25;;;;;;;25.56;100.00;100421.50;6248805;28;20046;-87
2023/06/20 09:27:08;;;;;;;5.43;4.80;;;;;;;25.40;100.00;100417.63;6248956;28;20065;-87
2023/06/20 09:30:10;;;;;;;5.72;5.22;;;;;;;25.27;100.00;100431.03;6252734;28;20041;-87
2023/06/20 09:33:13;;;;;;;5.80;5.30;;;;;;;25.31;100.00;100421.59;6254170;28;20047;-86
2023/06/20 09:36:17;;;;;;;6.07;5.50;;;;;;;25.37;100.00;100418.06;6240645;28;20025;-87
2023/06/20 09:39:24;;;;;;;6.10;5.22;;;;;;;25.58;100.00;100424.75;6240440;28;20064;-87
2023/06/20 09:42:27;;;;;;;7.57;5.82;;;;;;;25.92;100.00;100425.97;6249596;28;20049;-88
2023/06/20 09:45:29;;;;;;;6.18;5.57;;;;;;;26.39;100.00;100427.94;6245508;28;20053;-87
2023/06/20 09:48:32;;;;;;;7.07;5.95;;;;;;;27.00;100.00;100431.25;6238954;28;20053;-87
2023/06/20 09:51:41;;;;;;;7.28;6.20;;;;;;;27.66;100.00;100423.84;6248726;28;20128;-87
2023/06/20 09:54:55;;;;;;;7.05;6.32;;;;;;;28.20;100.00;100426.16;6240671;28;20479;-87
2023/06/20 09:57:59;;;;;;;7.28;6.57;;;;;;;28.34;100.00;100409.63;6251021;28;20072;-87
2023/06/20 10:01:02;;;;;;;8.88;7.07;;;;;;;28.23;100.00;100407.88;6229105;28;20512;-87
2023/06/20 10:04:06;;;;;;;9.00;6.60;;;;;;;27.90;100.00;100412.13;6243522;28;20503;-87
2023/06/20 10:07:14;;;;;;;8.00;7.18;;;;;;;27.33;100.00;100392.63;6231871;28;20459;-87
2023/06/20 10:10:17;;;;;;;7.78;7.07;;;;;;;26.81;100.00;100380.91;6244813;28;20037;-87
2023/06/20 10:13:19;;;;;;;8.23;7.40;;;;;;;26.47;100.00;100365.75;6254571;28;20049;-87
2023/06/20 10:16:28;;;;;;;6.70;6.07;;;;;;;26.51;100.00;100375.69;6232559;28;20056;-87
2023/06/20 10:19:43;;;;;;;7.70;6.57;;;;;;;26.69;100.00;100373.97;6240673;28;20068;-87
2023/06/20 10:22:45;;;;;;;9.30;6.97;;;;;;;26.93;100.00;100372.09;6237794;28;20056;-86
2023/06/20 10:25:58;;;;;;;7.97;7.20;;;;;;;27.26;100.00;100364.34;6242138;28;20052;-86
2023/06/20 10:29:01;;;;;;;8.48;7.63;;;;;;;27.87;100.00;100369.19;6247487;28;20053;-87
2023/06/20 10:32:05;;;;;;;8.45;7.13;;;;;;;28.52;100.00;100379.34;6249015;28;20881;-87
2023/06/20 10:35:15;;;;;;;9.02;8.10;;;;;;;28.80;100.00;100379.47;6242954;28;20534;-87
2023/06/20 10:38:17;;;;;;;;;;;;;;;28.84;100.00;100380.56;6188345;28;20045;-87
2023/06/20 10:41:28;;;;;;;9.50;7.28;;;;;;;28.83;100.00;100384.31;6256530;28;19925;-87
2023/06/20 10:44:30;;;;;;;9.85;7.60;;;;;;;28.82;100.00;100380.84;6257333;28;20080;-87
2023/06/20 10:47:33;;;;;;;8.38;6.95;;;;;;;28.92;100.00;100372.19;6247653;28;20112;-87
2023/06/20 10:50:35;;;;;;;7.50;6.80;;;;;;;28.98;100.00;100369.31;6237649;28;20044;-87
2023/06/20 10:53:41;;;;;;;7.80;7.00;;;;;;;28.87;100.00;100364.09;6245625;28;20045;-87
2023/06/20 10:56:43;;;;;;;7.95;7.15;;;;;;;28.73;100.00;100366.31;6244138;28;20151;-87
2023/06/20 10:59:50;;;;;;;7.78;6.97;;;;;;;28.84;100.00;100362.72;6253025;28;20033;-87
2023/06/20 11:02:54;;;;;;;6.78;6.18;;;;;;;29.04;100.00;100359.50;6247916;28;20045;-87
2023/06/20 11:05:56;;;;;;;7.38;6.20;;;;;;;29.30;100.00;100358.00;6244904;28;20049;-87
2023/06/20 11:08:58;;;;;;;6.38;5.78;;;;;;;29.52;100.00;100355.31;6238534;28;20042;-87
2023/06/20 11:11:59;;;;;;;7.90;6.10;;;;;;;29.79;100.00;100347.31;6236759;28;20222;-87
2023/06/20 11:15:19;;;;;;;7.22;6.53;;;;;;;29.96;100.00;100347.22;6229107;28;20039;-87
2023/06/20 11:18:20;;;;;;;6.47;5.88;;;;;;;30.31;100.00;100340.56;6243415;28;20148;-87
2023/06/20 11:21:23;;;;;;;6.20;5.43;;;;;;;30.54;100.00;100339.34;6239299;28;20052;-86
2023/06/20 11:24:24;;;;;;;5.75;5.28;;;;;;;30.59;100.00;100334.03;6241499;28;20037;-87
2023/06/20 11:27:27;;;;;;;5.57;5.15;;;;;;;30.41;100.00;100335.28;6240822;28;20119;-87
2023/06/20 11:30:31;;;;;;;5.75;5.25;;;;;;;30.26;100.00;100333.31;6243735;28;20388;-87
2023/06/20 11:33:33;;;;;;;7.45;6.38;;;;;;;30.24;100.00;100327.41;6243878;28;20049;-88
2023/06/20 11:36:36;;;;;;;6.60;5.68;;;;;;;30.15;100.00;100323.56;6236722;28;20044;-87
2023/06/20 11:39:39;;;;;;;6.85;5.25;;;;;;;30.00;100.00;100323.47;6236508;28;20045;-88
2023/06/20 11:42:46;;;;;;;6.03;5.53;;;;;;;30.35;100.00;100324.81;6236616;28;20041;-88
2023/06/20 11:45:48;;;;;;;6.22;5.63;;;;;;;30.99;100.00;100321.94;6221248;28;20505;-87
2023/06/20 11:48:52;;;;;;;5.88;5.35;;;;;;;31.94;100.00;100318.16;6236201;28;20096;-87
2023/06/20 11:51:53;;;;;;;5.25;4.75;;;;;;;32.29;100.00;100308.47;6246445;28;20112;-89
2023/06/20 11:54:58;;;;;;;5.22;4.82;;;;;;;32.25;100.00;100318.94;6232482;28;20041;-89
2023/06/20 11:58:00;;;;;;;5.90;5.40;;;;;;;32.12;100.00;100311.44;6237733;28;20049;-89
2023/06/20 12:01:04;;;;;;;5.03;4.63;;;;;;;32.00;100.00;100308.22;6235963;28;20419;-89
2023/06/20 12:04:14;;;;;;;5.53;5.03;;;;;;;31.89;100.00;100307.41;6231077;28;20553;-89
2023/06/20 12:07:18;;;;;;;;;;;;;;;31.71;100.00;100306.06;6236804;28;20042;-89
2023/06/20 12:10:21;;;;;;;5.32;4.82;;;;;;;31.74;100.00;100311.69;6226892;28;19925;-88
2023/06/20 12:13:22;;;;;;;4.82;4.43;;;;;;;31.80;100.00;100315.19;6236227;28;20037;-89
2023/06/20 12:16:24;;;;;;;5.20;4.68;;;;;;;31.69;100.00;100311.69;6253868;28;20247;-89
2023/06/20 12:19:28;;;;;;;5.10;4.70;;;;;;;31.43;100.00;100313.56;6250826;28;20045;-89
2023/06/20 12:22:30;;;;;;;4.78;4.38;;;;;;;31.91;100.00;100313.31;6236398;28;20834;-89
2023/06/20 12:25:32;;;;;;;4.90;4.50;;;;;;;32.24;100.00;100316.50;6243073;28;20124;-88
2023/06/20 12:28:35;;;;;;;4.43;4.13;;;;;;;32.52;100.00;100315.13;6252135;28;20048;-88
2023/06/20 12:31:37;;;;;;;4.80;4.40;;;;;;;33.13;95.35;100312.22;6240269;28;20077;-89
2023/06/20 12:34:38;;;;;;;4.63;4.22;;;;;;;33.22;100.00;100310.56;6249291;28;20041;-89
2023/06/20 12:37:40;;;;;;;4.70;4.10;;;;;;;33.66;97.59;100299.03;6246032;28;20228;-88
2023/06/20 12:40:44;;;;;;;4.53;4.13;;;;;;;34.03;90.90;100302.97;6238931;28;20400;-89
2023/06/20 12:43:45;;;;;;;4.57;4.10;;;;;;;34.19;83.19;100298.28;6246398;28;20053;-90
2023/06/20 12:46:47;;;;;;;4.50;4.20;;;;;;;34.19;87.41;100302.88;6238913;28;20041;-89
2023/06/20 12:49:49;;;;;;;4.05;3.75;;;;;;;34.09;82.75;100299.19;6237028;28;20072;-89
2023/06/20 12:52:51;;;;;;;4.90;4.45;;;;;;;34.30;81.37;100293.59;6248361;28;20095;-89
2023/06/20 12:55:54;;;;;;;4.90;4.50;;;;;;;34.49;83.77;100278.34;6249727;28;20040;-89
2023/06/20 12:58:58;;;;;;;4.68;4.25;;;;;;;34.42;83.98;100285.16;6233660;28;20056;-89
2023/06/20 13:01:59;;;;;;;4.75;4.35;;;;;;;33.97;85.01;100281.81;6248295;28;20048;-89
2023/06/20 13:05:01;;;;;;;5.95;4.38;;;;;;;33.80;93.01;100276.88;6250841;28;20041;-89
2023/06/20 13:08:04;;;;;;;5.00;4.50;;;;;;;34.01;86.59;100272.09;6251065;28;20040;-89
2023/06/20 13:11:05;;;;;;;4.40;4.10;;;;;;;34.13;89.53;100277.13;6251679;28;20394;-89
2023/06/20 13:14:08;;;;;;;4.70;4.30;;;;;;;33.76;83.16;100270.47;6243616;28;20042;-89
2023/06/20 13:17:11;;;;;;;4.50;4.20;;;;;;;33.21;92.19;100262.53;6241653;28;20045;-89
2023/06/20 13:20:13;;;;;;;4.60;4.22;;;;;;;32.81;100.00;100259.78;6239481;28;20132;-90
2023/06/20 13:23:14;;;;;;;4.85;4.45;;;;;;;33.06;98.28;100252.72;6240154;28;20045;-89
2023/06/20 13:26:17;;;;;;;4.57;4.18;;;;;;;33.31;91.21;100257.09;6243462;28;20041;-89
2023/06/20 13:29:19;;;;;;;4.68;4.28;;;;;;;33.45;91.83;100259.97;6243495;28;20621;-89
2023/06/20 13:32:21;;;;;;;4.80;4.10;;;;;;;33.66;89.86;100265.97;6253698;28;20128;-89
2023/06/20 13:35:24;;;;;;;4.95;4.55;;;;;;;33.55;88.30;100261.75;6233395;28;20052;-88
2023/06/20 13:38:25;;;;;;;4.47;4.13;;;;;;;33.46;89.60;100254.28;6244720;28;20036;-89
2023/06/20 13:41:27;;;;;;;4.55;4.20;;;;;;;33.54;88.90;100255.59;6240026;28;20044;-88
2023/06/20 13:44:30;;;;;;;5.78;4.65;;;;;;;33.72;90.33;100253.34;6246303;28;20045;-89
2023/06/20 13:47:32;;;;;;;4.63;4.22;;;;;;;33.85;84.81;100258.03;6231208;28;20045;-89
2023/06/20 13:50:37;;;;;;;4.80;4.40;;;;;;;34.19;86.39;100257.19;6234260;28;20176;-88
2023/06/20 13:53:39;;;;;;;4.45;4.05;;;;;;;34.48;81.41;100257.09;6232740;28;20045;-88
2023/06/20 13:56:41;;;;;;;4.25;3.90;;;;;;;34.43;78.88;100257.97;6259028;28;20126;-88
2023/06/20 13:59:43;;;;;;;4.20;3.80;;;;;;;34.38;73.75;100251.84;6250287;28;20045;-88
2023/06/20 14:02:46;;;;;;;4.40;4.03;;;;;;;34.39;80.13;100243.50;6239729;28;20041;-89